createdAt,value
2022-12-25T00:01:24.209Z,15.73
2022-12-25T00:03:51.170Z,15.60
2022-12-25T00:06:18.181Z,14.91
2022-12-25T00:08:44.830Z,14.89
2022-12-25T00:11:13.264Z,14.75
2022-12-25T00:13:39.930Z,15.15
2022-12-25T00:16:08.214Z,14.95
2022-12-25T00:18:34.857Z,14.64
2022-12-25T00:21:03.147Z,14.68
2022-12-25T00:23:29.875Z,14.54
2022-12-25T00:25:56.485Z,13.50
2022-12-25T00:28:23.240Z,14.03
2022-12-25T00:30:50.159Z,14.31
2022-12-25T00:33:16.831Z,14.69
2022-12-25T00:35:43.479Z,14.62
2022-12-25T00:38:10.135Z,14.57
2022-12-25T00:40:43.456Z,14.39
2022-12-25T00:43:10.186Z,13.89
2022-12-25T00:45:36.969Z,14.80
2022-12-25T00:48:03.616Z,14.63
2022-12-25T00:50:30.209Z,14.59
2022-12-25T00:52:56.817Z,14.98
2022-12-25T00:55:23.421Z,14.68
2022-12-25T00:57:50.076Z,14.55
2022-12-25T01:00:16.720Z,14.89
2022-12-25T01:02:43.554Z,14.70
2022-12-25T01:05:10.269Z,14.86
2022-12-25T01:07:36.868Z,14.96
2022-12-25T01:10:03.783Z,14.95
2022-12-25T01:12:31.217Z,14.83
2022-12-25T01:14:57.882Z,14.92
2022-12-25T01:17:24.500Z,14.49
2022-12-25T01:19:51.157Z,14.64
2022-12-25T01:22:17.775Z,16.15
2022-12-25T01:24:44.486Z,15.32
2022-12-25T01:27:11.411Z,15.78
2022-12-25T01:29:38.175Z,15.19
2022-12-25T01:32:05.196Z,14.46
2022-12-25T01:34:31.858Z,13.99
2022-12-25T01:36:58.455Z,14.55
2022-12-25T01:39:25.119Z,14.83
2022-12-25T01:41:51.750Z,13.41
2022-12-25T01:44:18.285Z,13.05
2022-12-25T01:46:45.135Z,13.60
2022-12-25T01:49:16.679Z,13.41
2022-12-25T01:51:53.779Z,13.59
2022-12-25T01:54:28.307Z,13.23
2022-12-25T01:56:56.298Z,12.92
2022-12-25T01:59:23.400Z,12.56
2022-12-25T02:01:50.102Z,12.04
2022-12-25T02:04:25.637Z,12.21
2022-12-25T02:06:52.285Z,11.50
2022-12-25T02:09:18.910Z,10.48
2022-12-25T02:11:46.260Z,10.71
2022-12-25T02:14:12.906Z,10.39
2022-12-25T02:16:58.074Z,10.17
2022-12-25T02:19:42.971Z,9.99
2022-12-25T02:22:34.518Z,9.63
2022-12-25T02:25:38.316Z,9.33
2022-12-25T02:28:25.849Z,9.58
2022-12-25T02:30:55.052Z,9.44
2022-12-25T02:33:29.180Z,9.28
2022-12-25T02:35:55.831Z,9.11
2022-12-25T02:38:31.437Z,9.64
2022-12-25T02:40:59.096Z,9.45
2022-12-25T02:43:31.025Z,8.37
2022-12-25T02:46:03.031Z,8.74
2022-12-25T02:48:31.985Z,8.70
2022-12-25T02:50:58.765Z,9.05
2022-12-25T02:53:25.348Z,8.74
2022-12-25T02:55:52.054Z,8.62
2022-12-25T02:58:20.410Z,8.16
2022-12-25T03:00:48.862Z,8.71
2022-12-25T03:03:15.507Z,8.66
2022-12-25T03:05:42.133Z,8.79
2022-12-25T03:08:11.749Z,8.31
2022-12-25T03:10:40.009Z,8.37
2022-12-25T03:13:12.999Z,8.59
2022-12-25T03:15:39.635Z,8.82
2022-12-25T03:18:11.994Z,8.79
2022-12-25T03:20:38.656Z,8.49
2022-12-25T03:23:05.274Z,8.69
2022-12-25T03:25:31.923Z,8.97
2022-12-25T03:27:58.613Z,8.70
2022-12-25T03:30:48.073Z,8.56
2022-12-25T03:33:43.733Z,9.93
2022-12-25T03:36:15.256Z,8.86
2022-12-25T03:39:06.391Z,8.39
2022-12-25T03:41:42.947Z,8.80
2022-12-25T03:44:14.563Z,8.89
2022-12-25T03:46:46.914Z,8.62
2022-12-25T03:49:19.541Z,9.04
2022-12-25T03:51:46.216Z,8.91
2022-12-25T03:54:12.869Z,9.88
2022-12-25T03:56:39.545Z,9.68
2022-12-25T03:59:06.193Z,9.60
2022-12-25T04:01:32.835Z,8.90
2022-12-25T04:04:00.488Z,9.19
2022-12-25T04:06:27.137Z,8.80
2022-12-25T04:08:53.787Z,9.03
2022-12-25T04:11:20.434Z,8.64
2022-12-25T04:13:47.052Z,8.65
2022-12-25T04:16:13.718Z,9.11
2022-12-25T04:18:40.377Z,8.59
2022-12-25T04:21:07.107Z,8.43
2022-12-25T04:23:33.730Z,8.13
2022-12-25T04:26:00.365Z,8.27
2022-12-25T04:28:27.051Z,8.14
2022-12-25T04:30:53.720Z,8.03
2022-12-25T04:33:20.358Z,8.54
2022-12-25T04:35:47.684Z,8.22
2022-12-25T04:38:14.276Z,8.33
2022-12-25T04:40:40.882Z,8.18
2022-12-25T04:43:07.526Z,7.83
2022-12-25T04:45:34.111Z,7.52
2022-12-25T04:48:00.777Z,7.72
2022-12-25T04:50:27.424Z,7.31
2022-12-25T04:52:54.093Z,7.23
2022-12-25T04:55:20.703Z,6.99
2022-12-25T04:57:47.290Z,6.95
2022-12-25T05:00:14.130Z,7.13
2022-12-25T05:02:40.971Z,6.94
2022-12-25T05:05:07.894Z,6.77
2022-12-25T05:07:34.537Z,7.00
2022-12-25T05:10:01.184Z,6.77
2022-12-25T05:12:27.779Z,6.98
2022-12-25T05:14:54.360Z,6.83
2022-12-25T05:17:21.000Z,6.81
2022-12-25T05:19:47.624Z,6.64
2022-12-25T05:22:14.209Z,6.64
2022-12-25T05:24:40.836Z,6.26
2022-12-25T05:27:07.499Z,6.28
2022-12-25T05:29:34.273Z,6.73
2022-12-25T05:32:00.920Z,6.74
2022-12-25T05:34:27.525Z,6.46
2022-12-25T05:36:54.162Z,6.60
2022-12-25T05:39:20.812Z,6.27
2022-12-25T05:41:47.491Z,6.47
2022-12-25T05:44:14.163Z,6.21
2022-12-25T05:46:40.858Z,6.26
2022-12-25T05:49:07.533Z,6.42
2022-12-25T05:51:34.178Z,6.18
2022-12-25T05:54:00.765Z,6.22
2022-12-25T05:56:27.361Z,5.96
2022-12-25T05:58:54.086Z,6.35
2022-12-25T06:01:25.008Z,6.12
2022-12-25T06:03:51.750Z,6.16
2022-12-25T06:06:18.455Z,6.37
2022-12-25T06:08:45.101Z,6.14
2022-12-25T06:11:12.726Z,6.19
2022-12-25T06:13:39.376Z,6.28
2022-12-25T06:16:07.242Z,5.75
2022-12-25T06:18:41.800Z,6.19
2022-12-25T06:21:11.955Z,5.92
2022-12-25T06:23:38.790Z,5.78
2022-12-25T06:26:06.462Z,5.57
2022-12-25T06:28:33.081Z,5.73
2022-12-25T06:30:59.672Z,5.50
2022-12-25T06:33:26.311Z,5.87
2022-12-25T06:35:52.955Z,5.61
2022-12-25T06:38:19.574Z,5.64
2022-12-25T06:40:46.214Z,5.62
2022-12-25T06:43:12.877Z,5.97
2022-12-25T06:45:39.498Z,5.43
2022-12-25T06:48:06.198Z,5.51
2022-12-25T06:50:32.838Z,5.36
2022-12-25T06:52:59.440Z,5.65
2022-12-25T06:55:27.130Z,6.07
2022-12-25T06:57:53.739Z,5.69
2022-12-25T07:00:20.413Z,5.65
2022-12-25T07:02:47.548Z,5.45
2022-12-25T07:05:14.264Z,5.64
2022-12-25T07:07:40.918Z,5.05
2022-12-25T07:10:07.983Z,5.11
2022-12-25T07:12:34.624Z,5.01
2022-12-25T07:15:01.230Z,4.86
2022-12-25T07:17:27.828Z,5.17
2022-12-25T07:19:54.510Z,4.83
2022-12-25T07:22:21.175Z,5.21
2022-12-25T07:24:47.856Z,5.10
2022-12-25T07:27:14.526Z,5.21
2022-12-25T07:29:41.116Z,5.32
2022-12-25T07:32:07.844Z,5.24
2022-12-25T07:34:34.585Z,5.69
2022-12-25T07:37:01.265Z,5.76
2022-12-25T07:39:27.924Z,5.16
2022-12-25T07:41:54.526Z,5.46
2022-12-25T07:44:21.163Z,5.53
2022-12-25T07:46:48.063Z,5.67
2022-12-25T07:49:14.729Z,5.81
2022-12-25T07:51:41.368Z,6.38
2022-12-25T07:54:08.005Z,6.35
2022-12-25T07:56:34.686Z,6.73
2022-12-25T07:59:02.513Z,6.71
2022-12-25T08:01:29.331Z,6.54
2022-12-25T08:03:58.052Z,6.66
2022-12-25T08:06:26.397Z,6.59
2022-12-25T08:08:53.087Z,7.07
2022-12-25T08:11:19.715Z,7.29
2022-12-25T08:13:46.395Z,7.65
2022-12-25T08:16:13.173Z,7.65
2022-12-25T08:18:40.034Z,7.80
2022-12-25T08:21:11.183Z,7.39
2022-12-25T08:23:39.348Z,7.59
2022-12-25T08:26:06.703Z,7.31
2022-12-25T08:28:34.618Z,7.66
2022-12-25T08:31:14.817Z,7.40
2022-12-25T08:33:41.635Z,7.39
2022-12-25T08:36:09.446Z,7.42
2022-12-25T08:38:36.176Z,7.63
2022-12-25T08:41:02.951Z,7.90
2022-12-25T08:43:29.609Z,9.55
2022-12-25T08:45:56.348Z,9.66
2022-12-25T08:48:23.034Z,9.07
2022-12-25T08:50:50.152Z,8.56
2022-12-25T08:53:17.055Z,8.48
2022-12-25T08:55:43.800Z,8.60
2022-12-25T08:58:10.434Z,8.59
2022-12-25T09:00:37.090Z,8.63
2022-12-25T09:03:04.098Z,8.70
2022-12-25T09:05:30.802Z,8.88
2022-12-25T09:07:57.427Z,8.23
2022-12-25T09:10:24.137Z,8.62
2022-12-25T09:12:50.780Z,8.92
2022-12-25T09:15:17.522Z,8.79
2022-12-25T09:17:44.205Z,8.41
2022-12-25T09:20:10.896Z,9.79
2022-12-25T09:22:37.611Z,10.29
2022-12-25T09:25:04.582Z,11.73
2022-12-25T09:27:31.212Z,12.85
2022-12-25T09:29:57.869Z,12.43
2022-12-25T09:32:24.487Z,11.98
2022-12-25T09:34:51.143Z,9.74
2022-12-25T09:37:17.791Z,9.28
2022-12-25T09:39:46.565Z,8.81
2022-12-25T09:42:21.232Z,9.13
2022-12-25T09:44:56.436Z,9.28
2022-12-25T09:47:27.880Z,8.98
2022-12-25T09:49:57.022Z,9.66
2022-12-25T09:52:34.567Z,9.81
2022-12-25T09:55:20.720Z,9.64
2022-12-25T09:57:58.596Z,9.52
2022-12-25T10:00:29.339Z,9.26
2022-12-25T10:03:19.148Z,9.29
2022-12-25T10:05:54.683Z,9.11
2022-12-25T10:08:58.417Z,9.25
2022-12-25T10:11:24.911Z,9.80
2022-12-25T10:14:19.287Z,10.66
2022-12-25T10:17:18.059Z,11.28
2022-12-25T10:20:05.809Z,11.30
2022-12-25T10:22:36.132Z,12.47
2022-12-25T10:25:03.161Z,13.00
2022-12-25T10:27:34.016Z,12.80
2022-12-25T10:30:00.625Z,13.11
2022-12-25T10:32:27.487Z,13.45
2022-12-25T10:34:54.108Z,12.99
2022-12-25T10:37:20.749Z,13.29
2022-12-25T10:39:47.413Z,12.31
2022-12-25T10:42:35.593Z,12.63
2022-12-25T10:45:04.928Z,12.98
2022-12-25T10:47:33.045Z,12.89
2022-12-25T10:50:00.177Z,12.64
2022-12-25T10:52:28.311Z,12.30
2022-12-25T10:54:55.692Z,12.58
2022-12-25T10:57:23.808Z,12.79
2022-12-25T10:59:56.076Z,11.10
2022-12-25T11:02:30.455Z,11.99
2022-12-25T11:05:08.484Z,11.51
2022-12-25T11:07:36.004Z,11.46
2022-12-25T11:10:26.437Z,11.12
2022-12-25T11:12:53.131Z,12.62
2022-12-25T11:15:34.624Z,40.87
2022-12-25T11:18:01.282Z,11.09
2022-12-25T11:20:27.938Z,10.30
2022-12-25T11:22:54.629Z,9.94
2022-12-25T11:25:23.652Z,9.80
2022-12-25T11:28:00.705Z,10.37
2022-12-25T11:30:29.203Z,12.08
2022-12-25T11:32:55.843Z,11.73
2022-12-25T11:35:24.139Z,10.96
2022-12-25T11:37:53.991Z,12.44
2022-12-25T11:40:50.568Z,17.06
2022-12-25T11:43:35.621Z,10.02
2022-12-25T11:46:26.406Z,12.41
2022-12-25T11:49:01.252Z,13.21
2022-12-25T11:51:35.387Z,12.71
2022-12-25T11:54:27.631Z,12.34
2022-12-25T11:56:54.500Z,10.31
2022-12-25T11:59:27.676Z,10.35
2022-12-25T12:02:17.645Z,11.05
2022-12-25T12:04:44.459Z,11.13
2022-12-25T12:07:25.759Z,26.28
2022-12-25T12:09:58.432Z,12.78
2022-12-25T12:12:52.403Z,11.84
2022-12-25T12:15:26.581Z,12.14
2022-12-25T12:17:53.186Z,12.42
2022-12-25T12:20:31.078Z,10.59
2022-12-25T12:22:57.751Z,9.70
2022-12-25T12:25:24.353Z,9.81
2022-12-25T12:28:04.826Z,10.31
2022-12-25T12:30:35.373Z,9.20
2022-12-25T12:33:06.055Z,9.41
2022-12-25T12:35:34.575Z,8.62
2022-12-25T12:38:05.149Z,8.58
2022-12-25T12:40:41.063Z,9.40
2022-12-25T12:43:30.478Z,9.17
2022-12-25T12:46:08.053Z,9.36
2022-12-25T12:48:39.876Z,10.08
2022-12-25T12:51:08.876Z,10.21
2022-12-25T12:53:35.592Z,10.90
2022-12-25T12:56:12.653Z,11.67
2022-12-25T12:58:41.469Z,12.01
2022-12-25T13:01:11.286Z,11.77
2022-12-25T13:03:48.717Z,11.70
2022-12-25T13:06:18.881Z,12.14
2022-12-25T13:08:58.271Z,12.81
2022-12-25T13:11:28.717Z,12.23
2022-12-25T13:13:56.823Z,11.76
2022-12-25T13:16:29.822Z,11.21
2022-12-25T13:18:56.529Z,11.87
2022-12-25T13:21:25.189Z,11.56
2022-12-25T13:23:59.727Z,12.33
2022-12-25T13:26:26.397Z,12.42
2022-12-25T13:28:53.068Z,12.76
2022-12-25T13:31:20.929Z,13.10
2022-12-25T13:34:05.133Z,12.61
2022-12-25T13:36:38.538Z,12.69
2022-12-25T13:39:07.662Z,13.09
2022-12-25T13:41:36.937Z,13.26
2022-12-25T13:44:03.621Z,13.26
2022-12-25T13:46:30.425Z,13.09
2022-12-25T13:49:00.416Z,12.71
2022-12-25T13:51:27.792Z,13.99
2022-12-25T13:54:05.332Z,13.54
2022-12-25T13:56:31.953Z,13.01
2022-12-25T13:58:58.619Z,12.57
2022-12-25T14:01:25.422Z,13.03
2022-12-25T14:03:52.164Z,16.10
2022-12-25T14:06:20.945Z,13.67
2022-12-25T14:08:47.853Z,13.53
2022-12-25T14:11:15.567Z,13.61
2022-12-25T14:13:43.083Z,13.22
2022-12-25T14:16:10.012Z,12.62
2022-12-25T14:18:36.709Z,12.25
2022-12-25T14:21:14.096Z,13.62
2022-12-25T14:23:47.725Z,12.93
2022-12-25T14:26:21.361Z,12.80
2022-12-25T14:28:55.369Z,13.56
2022-12-25T14:31:22.213Z,13.30
2022-12-25T14:33:48.945Z,14.05
2022-12-25T14:36:15.620Z,14.15
2022-12-25T14:38:42.240Z,13.40
2022-12-25T14:41:22.624Z,12.59
2022-12-25T14:43:54.547Z,13.11
2022-12-25T14:46:25.443Z,12.55
2022-12-25T14:49:05.778Z,12.74
2022-12-25T14:51:33.021Z,12.57
2022-12-25T14:54:01.819Z,12.75
2022-12-25T14:56:28.684Z,12.82
2022-12-25T14:58:56.745Z,12.60
2022-12-25T15:01:37.236Z,13.91
2022-12-25T15:04:04.706Z,14.44
2022-12-25T15:06:31.622Z,14.96
2022-12-25T15:09:03.172Z,14.07
2022-12-25T15:11:29.948Z,13.47
2022-12-25T15:13:56.620Z,13.45
2022-12-25T15:16:27.551Z,13.47
2022-12-25T15:18:54.256Z,13.16
2022-12-25T15:21:26.401Z,11.75
2022-12-25T15:23:56.509Z,12.87
2022-12-25T15:26:23.194Z,12.97
2022-12-25T15:28:49.942Z,12.87
2022-12-25T15:31:20.734Z,13.79
2022-12-25T15:33:47.795Z,12.85
2022-12-25T15:36:14.581Z,13.67
2022-12-25T15:38:41.312Z,12.71
2022-12-25T15:41:14.778Z,13.00
2022-12-25T15:43:41.709Z,13.01
2022-12-25T15:46:08.801Z,13.19
2022-12-25T15:48:35.473Z,12.46
2022-12-25T15:51:02.139Z,12.11
2022-12-25T15:53:28.789Z,13.16
2022-12-25T15:55:55.457Z,13.32
2022-12-25T15:58:22.353Z,12.68
2022-12-25T16:00:50.173Z,12.09
2022-12-25T16:03:17.048Z,12.58
2022-12-25T16:05:43.662Z,12.42
2022-12-25T16:08:10.300Z,12.20
2022-12-25T16:10:39.163Z,11.53
2022-12-25T16:13:07.142Z,11.31
2022-12-25T16:15:33.833Z,12.05
2022-12-25T16:18:00.509Z,12.17
2022-12-25T16:20:27.111Z,12.26
2022-12-25T16:22:53.817Z,12.65
2022-12-25T16:25:20.445Z,12.70
2022-12-25T16:27:47.095Z,12.75
2022-12-25T16:30:15.020Z,12.81
2022-12-25T16:32:41.780Z,13.36
2022-12-25T16:35:08.847Z,13.80
2022-12-25T16:37:35.460Z,13.79
2022-12-25T16:40:02.064Z,14.34
2022-12-25T16:42:28.736Z,14.23
2022-12-25T16:44:55.358Z,14.36
2022-12-25T16:47:21.965Z,13.98
2022-12-25T16:49:48.648Z,15.18
2022-12-25T16:52:15.444Z,15.42
2022-12-25T16:54:42.104Z,14.93
2022-12-25T16:57:08.754Z,16.32
2022-12-25T16:59:35.410Z,15.63
2022-12-25T17:02:02.232Z,15.30
2022-12-25T17:04:28.921Z,15.49
2022-12-25T17:06:55.708Z,16.14
2022-12-25T17:09:22.329Z,15.61
2022-12-25T17:11:49.088Z,15.61
2022-12-25T17:14:15.779Z,16.73
2022-12-25T17:16:42.567Z,17.20
2022-12-25T17:19:16.177Z,16.66
2022-12-25T17:21:42.867Z,17.59
2022-12-25T17:24:09.726Z,17.22
2022-12-25T17:26:36.491Z,16.65
2022-12-25T17:29:03.142Z,16.86
2022-12-25T17:31:29.845Z,16.87
2022-12-25T17:33:56.513Z,18.14
2022-12-25T17:36:23.327Z,18.16
2022-12-25T17:38:50.038Z,19.34
2022-12-25T17:41:17.367Z,20.51
2022-12-25T17:43:43.989Z,19.64
2022-12-25T17:46:17.895Z,19.27
2022-12-25T17:48:44.706Z,21.23
2022-12-25T17:51:14.850Z,23.01
2022-12-25T17:53:42.626Z,22.09
2022-12-25T17:56:09.348Z,19.84
2022-12-25T17:58:36.281Z,19.47
2022-12-25T18:01:13.506Z,18.47
2022-12-25T18:03:40.276Z,21.19
2022-12-25T18:06:08.153Z,21.31
2022-12-25T18:08:39.263Z,19.51
2022-12-25T18:11:11.333Z,17.66
2022-12-25T18:13:37.994Z,13.80
2022-12-25T18:16:06.346Z,13.85
2022-12-25T18:18:33.232Z,13.97
2022-12-25T18:20:59.879Z,13.16
2022-12-25T18:23:26.519Z,13.50
2022-12-25T18:25:53.191Z,13.63
2022-12-25T18:28:19.866Z,13.89
2022-12-25T18:30:46.486Z,13.18
2022-12-25T18:33:13.176Z,13.68
2022-12-25T18:35:40.744Z,13.81
2022-12-25T18:38:07.409Z,13.36
2022-12-25T18:40:34.092Z,13.39
2022-12-25T18:43:03.473Z,13.31
2022-12-25T18:45:30.502Z,13.75
2022-12-25T18:47:57.184Z,13.49
2022-12-25T18:50:23.834Z,13.10
2022-12-25T18:52:51.907Z,13.41
2022-12-25T18:55:19.805Z,13.74
2022-12-25T18:57:46.532Z,13.99
2022-12-25T19:00:13.488Z,28.91
2022-12-25T19:02:40.288Z,34.36
2022-12-25T19:05:07.191Z,30.33
2022-12-25T19:07:33.925Z,25.37
2022-12-25T19:10:00.567Z,21.28
2022-12-25T19:12:27.258Z,18.72
2022-12-25T19:14:53.993Z,16.45
2022-12-25T19:17:20.673Z,15.98
2022-12-25T19:19:47.372Z,14.82
2022-12-25T19:22:14.049Z,13.82
2022-12-25T19:24:40.746Z,14.37
2022-12-25T19:27:07.342Z,13.63
2022-12-25T19:29:34.146Z,13.65
2022-12-25T19:32:00.908Z,14.12
2022-12-25T19:34:27.595Z,14.17
2022-12-25T19:36:54.223Z,14.61
2022-12-25T19:39:20.863Z,14.11
2022-12-25T19:41:47.840Z,14.30
2022-12-25T19:44:14.513Z,14.96
2022-12-25T19:46:41.314Z,15.14
2022-12-25T19:49:10.142Z,14.49
2022-12-25T19:51:38.407Z,14.39
2022-12-25T19:54:05.433Z,14.35
2022-12-25T19:56:32.164Z,14.27
2022-12-25T19:58:58.975Z,14.16
2022-12-25T20:01:26.664Z,14.55
2022-12-25T20:03:53.382Z,14.13
2022-12-25T20:06:27.996Z,14.09
2022-12-25T20:08:55.925Z,13.43
2022-12-25T20:11:23.189Z,14.28
2022-12-25T20:13:49.850Z,14.02
2022-12-25T20:16:16.575Z,14.12
2022-12-25T20:18:43.238Z,14.29
2022-12-25T20:21:17.435Z,14.01
2022-12-25T20:23:44.582Z,14.53
2022-12-25T20:26:11.677Z,13.99
2022-12-25T20:28:38.949Z,14.35
2022-12-25T20:31:10.162Z,13.99
2022-12-25T20:33:36.785Z,14.36
2022-12-25T20:36:03.687Z,14.80
2022-12-25T20:38:30.357Z,14.07
2022-12-25T20:43:51.976Z,14.35
2022-12-25T20:46:18.731Z,14.37
2022-12-25T20:48:45.388Z,14.02
2022-12-25T20:51:16.479Z,13.29
2022-12-25T20:53:43.363Z,13.18
2022-12-25T20:56:11.400Z,13.72
2022-12-25T20:58:38.115Z,13.86
2022-12-25T21:01:06.141Z,14.95
2022-12-25T21:03:33.239Z,14.62
2022-12-25T21:05:59.947Z,14.67
2022-12-25T21:08:27.220Z,13.95
2022-12-25T21:10:54.928Z,14.63
2022-12-25T21:13:23.087Z,14.66
2022-12-25T21:15:50.525Z,13.91
2022-12-25T21:18:18.065Z,15.16
2022-12-25T21:20:49.964Z,14.82
2022-12-25T21:23:16.695Z,14.17
2022-12-25T21:25:43.349Z,14.16
2022-12-25T21:28:09.988Z,14.18
2022-12-25T21:30:36.689Z,13.69
2022-12-25T21:33:03.451Z,13.94
2022-12-25T21:35:30.350Z,14.47
2022-12-25T21:37:56.957Z,13.73
2022-12-25T21:40:23.582Z,13.33
2022-12-25T21:42:51.579Z,13.77
2022-12-25T21:45:18.195Z,14.01
2022-12-25T21:48:01.928Z,13.24
2022-12-25T21:50:33.543Z,12.70
2022-12-25T21:53:02.697Z,13.96
2022-12-25T21:55:29.328Z,13.49
2022-12-25T21:57:56.038Z,13.56
2022-12-25T22:00:22.651Z,13.73
2022-12-25T22:02:49.351Z,13.76
2022-12-25T22:05:16.146Z,12.93
2022-12-25T22:07:42.825Z,12.98
2022-12-25T22:10:09.564Z,13.50
2022-12-25T22:12:36.233Z,13.68
2022-12-25T22:15:04.997Z,13.53
2022-12-25T22:17:44.541Z,13.31
2022-12-25T22:20:14.420Z,13.13
2022-12-25T22:22:41.049Z,13.94
2022-12-25T22:25:07.860Z,13.48
2022-12-25T22:27:36.157Z,13.20
2022-12-25T22:30:02.980Z,13.07
2022-12-25T22:32:29.650Z,14.02
2022-12-25T22:34:56.311Z,13.75
2022-12-25T22:37:22.943Z,13.37
2022-12-25T22:39:49.675Z,13.52
2022-12-25T22:42:16.357Z,14.21
2022-12-25T22:44:42.992Z,13.18
2022-12-25T22:47:09.680Z,12.34
2022-12-25T22:49:36.494Z,12.56
2022-12-25T22:52:03.092Z,12.24
2022-12-25T22:54:30.426Z,12.83
2022-12-25T22:56:57.122Z,11.99
2022-12-25T22:59:23.750Z,11.59
2022-12-25T23:01:50.573Z,11.49
2022-12-25T23:04:17.285Z,11.08
2022-12-25T23:06:43.913Z,11.07
2022-12-25T23:09:17.465Z,11.76
2022-12-25T23:11:47.128Z,12.40
2022-12-25T23:14:13.790Z,11.89
2022-12-25T23:16:40.447Z,12.39
2022-12-25T23:19:07.042Z,12.65
2022-12-25T23:21:33.644Z,11.87
2022-12-25T23:24:00.277Z,11.42
2022-12-25T23:26:26.882Z,11.25
2022-12-25T23:28:53.512Z,10.70
2022-12-25T23:31:20.952Z,10.61
2022-12-25T23:33:47.659Z,10.52
2022-12-25T23:36:14.257Z,10.45
2022-12-25T23:38:40.932Z,10.46
2022-12-25T23:41:07.588Z,10.67
2022-12-25T23:43:34.211Z,10.39
2022-12-25T23:46:00.865Z,10.29
2022-12-25T23:48:27.564Z,10.86
2022-12-25T23:50:54.250Z,10.32
2022-12-25T23:53:20.859Z,10.54
2022-12-25T23:55:53.350Z,10.37
2022-12-25T23:58:22.069Z,10.01
